sensor_id;sensor_type;location;lat;lon;timestamp;P1;durP1;ratioP1;P2;durP2;ratioP2
18190;SDS011;47004;51.366;12.348;2023-09-19T00:00:36;3.83;;;1.60;;
18190;SDS011;47004;51.366;12.348;2023-09-19T00:02:38;7.57;;;1.83;;
18190;SDS011;47004;51.366;12.348;2023-09-19T00:04:40;2.63;;;1.53;;
18190;SDS011;47004;51.366;12.348;2023-09-19T00:06:43;4.10;;;1.70;;
18190;SDS011;47004;51.366;12.348;2023-09-19T00:08:45;3.23;;;1.50;;
18190;SDS011;47004;51.366;12.348;2023-09-19T00:10:47;3.63;;;1.60;;
18190;SDS011;47004;51.366;12.348;2023-09-19T00:12:50;3.60;;;1.40;;
18190;SDS011;47004;51.366;12.348;2023-09-19T00:14:53;4.40;;;2.00;;
18190;SDS011;47004;51.366;12.348;2023-09-19T00:16:58;4.30;;;1.80;;
18190;SDS011;47004;51.366;12.348;2023-09-19T00:19:00;2.63;;;1.50;;
18190;SDS011;47004;51.366;12.348;2023-09-19T00:21:08;2.37;;;1.50;;
18190;SDS011;47004;51.366;12.348;2023-09-19T00:23:10;4.23;;;1.70;;
18190;SDS011;47004;51.366;12.348;2023-09-19T00:25:12;4.53;;;1.70;;
18190;SDS011;47004;51.366;12.348;2023-09-19T00:27:15;2.87;;;1.77;;
18190;SDS011;47004;51.366;12.348;2023-09-19T00:29:18;3.27;;;1.70;;
18190;SDS011;47004;51.366;12.348;2023-09-19T00:31:21;4.00;;;1.90;;
18190;SDS011;47004;51.366;12.348;2023-09-19T00:33:26;2.27;;;1.70;;
18190;SDS011;47004;51.366;12.348;2023-09-19T00:35:29;2.10;;;1.50;;
18190;SDS011;47004;51.366;12.348;2023-09-19T00:37:31;3.33;;;1.83;;
18190;SDS011;47004;51.366;12.348;2023-09-19T00:39:32;2.77;;;1.60;;
18190;SDS011;47004;51.366;12.348;2023-09-19T00:41:34;3.97;;;1.83;;
18190;SDS011;47004;51.366;12.348;2023-09-19T00:43:36;5.53;;;1.90;;
18190;SDS011;47004;51.366;12.348;2023-09-19T00:45:42;4.03;;;1.83;;
18190;SDS011;47004;51.366;12.348;2023-09-19T00:47:46;3.23;;;2.07;;
18190;SDS011;47004;51.366;12.348;2023-09-19T00:49:51;1.90;;;1.57;;
18190;SDS011;47004;51.366;12.348;2023-09-19T00:51:53;4.13;;;1.80;;
18190;SDS011;47004;51.366;12.348;2023-09-19T00:53:56;4.80;;;1.97;;
18190;SDS011;47004;51.366;12.348;2023-09-19T00:55:59;5.33;;;1.70;;
18190;SDS011;47004;51.366;12.348;2023-09-19T00:58:00;3.63;;;2.00;;
18190;SDS011;47004;51.366;12.348;2023-09-19T01:00:03;4.67;;;2.20;;
18190;SDS011;47004;51.366;12.348;2023-09-19T01:02:07;2.70;;;1.87;;
18190;SDS011;47004;51.366;12.348;2023-09-19T01:04:09;5.30;;;2.43;;
18190;SDS011;47004;51.366;12.348;2023-09-19T01:06:12;4.03;;;1.87;;
18190;SDS011;47004;51.366;12.348;2023-09-19T01:08:14;3.83;;;1.77;;
18190;SDS011;47004;51.366;12.348;2023-09-19T01:10:17;2.40;;;1.87;;
18190;SDS011;47004;51.366;12.348;2023-09-19T01:12:22;8.13;;;2.30;;
18190;SDS011;47004;51.366;12.348;2023-09-19T01:14:34;4.67;;;1.90;;
18190;SDS011;47004;51.366;12.348;2023-09-19T01:16:45;6.43;;;2.17;;
18190;SDS011;47004;51.366;12.348;2023-09-19T01:18:55;4.97;;;2.20;;
18190;SDS011;47004;51.366;12.348;2023-09-19T01:21:11;5.50;;;2.13;;
18190;SDS011;47004;51.366;12.348;2023-09-19T01:23:21;3.23;;;1.90;;
18190;SDS011;47004;51.366;12.348;2023-09-19T01:25:50;5.20;;;2.07;;
18190;SDS011;47004;51.366;12.348;2023-09-19T01:28:15;3.93;;;2.00;;
18190;SDS011;47004;51.366;12.348;2023-09-19T01:30:29;4.30;;;2.10;;
18190;SDS011;47004;51.366;12.348;2023-09-19T01:32:37;2.47;;;1.73;;
18190;SDS011;47004;51.366;12.348;2023-09-19T01:34:44;3.73;;;1.93;;
18190;SDS011;47004;51.366;12.348;2023-09-19T01:36:48;3.87;;;1.70;;
18190;SDS011;47004;51.366;12.348;2023-09-19T01:38:50;3.90;;;2.00;;
18190;SDS011;47004;51.366;12.348;2023-09-19T01:40:53;2.27;;;1.67;;
18190;SDS011;47004;51.366;12.348;2023-09-19T01:43:02;3.27;;;1.90;;
18190;SDS011;47004;51.366;12.348;2023-09-19T01:45:13;5.67;;;2.30;;
18190;SDS011;47004;51.366;12.348;2023-09-19T01:47:32;4.30;;;1.80;;
18190;SDS011;47004;51.366;12.348;2023-09-19T01:49:37;2.57;;;1.80;;
18190;SDS011;47004;51.366;12.348;2023-09-19T01:51:48;5.13;;;1.80;;
18190;SDS011;47004;51.366;12.348;2023-09-19T01:53:59;2.57;;;1.70;;
18190;SDS011;47004;51.366;12.348;2023-09-19T01:56:04;3.70;;;1.93;;
18190;SDS011;47004;51.366;12.348;2023-09-19T01:58:14;3.70;;;1.60;;
18190;SDS011;47004;51.366;12.348;2023-09-19T02:00:21;2.90;;;1.53;;
18190;SDS011;47004;51.366;12.348;2023-09-19T02:02:28;2.17;;;1.40;;
18190;SDS011;47004;51.366;12.348;2023-09-19T02:04:32;2.93;;;1.50;;
18190;SDS011;47004;51.366;12.348;2023-09-19T02:06:39;3.13;;;1.50;;
18190;SDS011;47004;51.366;12.348;2023-09-19T02:08:41;4.23;;;1.80;;
18190;SDS011;47004;51.366;12.348;2023-09-19T02:10:42;2.77;;;1.60;;
18190;SDS011;47004;51.366;12.348;2023-09-19T02:12:46;2.60;;;1.47;;
18190;SDS011;47004;51.366;12.348;2023-09-19T02:14:48;2.00;;;1.30;;
18190;SDS011;47004;51.366;12.348;2023-09-19T02:16:50;2.73;;;1.40;;
18190;SDS011;47004;51.366;12.348;2023-09-19T02:18:53;2.73;;;1.50;;
18190;SDS011;47004;51.366;12.348;2023-09-19T02:20:55;3.83;;;1.30;;
18190;SDS011;47004;51.366;12.348;2023-09-19T02:22:58;2.67;;;1.30;;
18190;SDS011;47004;51.366;12.348;2023-09-19T02:25:00;4.67;;;1.53;;
18190;SDS011;47004;51.366;12.348;2023-09-19T02:27:02;1.73;;;1.33;;
18190;SDS011;47004;51.366;12.348;2023-09-19T02:29:05;2.90;;;1.50;;
18190;SDS011;47004;51.366;12.348;2023-09-19T02:31:08;2.83;;;1.23;;
18190;SDS011;47004;51.366;12.348;2023-09-19T02:33:11;3.07;;;1.50;;
18190;SDS011;47004;51.366;12.348;2023-09-19T02:35:15;2.77;;;1.70;;
18190;SDS011;47004;51.366;12.348;2023-09-19T02:37:16;3.07;;;1.57;;
18190;SDS011;47004;51.366;12.348;2023-09-19T02:39:19;3.70;;;1.63;;
18190;SDS011;47004;51.366;12.348;2023-09-19T02:41:20;2.30;;;1.70;;
18190;SDS011;47004;51.366;12.348;2023-09-19T02:43:22;4.37;;;1.80;;
18190;SDS011;47004;51.366;12.348;2023-09-19T02:45:25;2.57;;;1.40;;
18190;SDS011;47004;51.366;12.348;2023-09-19T02:47:27;2.70;;;1.20;;
18190;SDS011;47004;51.366;12.348;2023-09-19T02:49:31;4.00;;;1.47;;
18190;SDS011;47004;51.366;12.348;2023-09-19T02:51:35;2.50;;;1.23;;
18190;SDS011;47004;51.366;12.348;2023-09-19T02:53:37;4.23;;;1.27;;
18190;SDS011;47004;51.366;12.348;2023-09-19T02:55:40;2.27;;;1.40;;
18190;SDS011;47004;51.366;12.348;2023-09-19T02:57:45;1.30;;;1.13;;
18190;SDS011;47004;51.366;12.348;2023-09-19T02:59:48;3.03;;;1.20;;
18190;SDS011;47004;51.366;12.348;2023-09-19T03:01:50;1.73;;;1.10;;
18190;SDS011;47004;51.366;12.348;2023-09-19T03:03:54;3.43;;;1.30;;
18190;SDS011;47004;51.366;12.348;2023-09-19T03:05:56;2.10;;;1.00;;
18190;SDS011;47004;51.366;12.348;2023-09-19T03:08:00;2.43;;;1.50;;
18190;SDS011;47004;51.366;12.348;2023-09-19T03:10:03;3.87;;;1.60;;
18190;SDS011;47004;51.366;12.348;2023-09-19T03:12:05;2.50;;;1.20;;
18190;SDS011;47004;51.366;12.348;2023-09-19T03:14:08;3.63;;;1.23;;
18190;SDS011;47004;51.366;12.348;2023-09-19T03:16:10;4.50;;;1.40;;
18190;SDS011;47004;51.366;12.348;2023-09-19T03:18:15;2.20;;;1.20;;
18190;SDS011;47004;51.366;12.348;2023-09-19T03:20:20;1.93;;;1.20;;
18190;SDS011;47004;51.366;12.348;2023-09-19T03:22:22;2.67;;;1.50;;
18190;SDS011;47004;51.366;12.348;2023-09-19T03:24:26;1.70;;;1.23;;
18190;SDS011;47004;51.366;12.348;2023-09-19T03:26:29;3.27;;;1.27;;
18190;SDS011;47004;51.366;12.348;2023-09-19T03:28:33;3.30;;;1.20;;
18190;SDS011;47004;51.366;12.348;2023-09-19T03:30:35;4.37;;;1.13;;
18190;SDS011;47004;51.366;12.348;2023-09-19T03:32:43;1.73;;;1.20;;
18190;SDS011;47004;51.366;12.348;2023-09-19T03:34:46;1.97;;;1.10;;
18190;SDS011;47004;51.366;12.348;2023-09-19T03:36:48;2.00;;;1.00;;
18190;SDS011;47004;51.366;12.348;2023-09-19T03:38:51;3.73;;;1.23;;
18190;SDS011;47004;51.366;12.348;2023-09-19T03:40:54;1.13;;;1.00;;
18190;SDS011;47004;51.366;12.348;2023-09-19T03:42:56;3.17;;;1.20;;
18190;SDS011;47004;51.366;12.348;2023-09-19T03:45:01;4.07;;;1.20;;
18190;SDS011;47004;51.366;12.348;2023-09-19T03:47:05;2.47;;;1.20;;
18190;SDS011;47004;51.366;12.348;2023-09-19T03:49:07;5.73;;;1.20;;
18190;SDS011;47004;51.366;12.348;2023-09-19T03:51:10;2.10;;;1.20;;
18190;SDS011;47004;51.366;12.348;2023-09-19T03:53:12;1.93;;;1.20;;
18190;SDS011;47004;51.366;12.348;2023-09-19T03:55:14;3.47;;;1.53;;
18190;SDS011;47004;51.366;12.348;2023-09-19T03:57:17;3.37;;;1.47;;
18190;SDS011;47004;51.366;12.348;2023-09-19T03:59:20;2.63;;;1.43;;
18190;SDS011;47004;51.366;12.348;2023-09-19T04:01:22;5.30;;;1.20;;
18190;SDS011;47004;51.366;12.348;2023-09-19T04:03:24;2.13;;;1.47;;
18190;SDS011;47004;51.366;12.348;2023-09-19T04:05:34;3.40;;;1.47;;
18190;SDS011;47004;51.366;12.348;2023-09-19T04:07:36;2.00;;;1.23;;
18190;SDS011;47004;51.366;12.348;2023-09-19T04:09:37;2.37;;;1.50;;
18190;SDS011;47004;51.366;12.348;2023-09-19T04:11:39;3.27;;;1.70;;
18190;SDS011;47004;51.366;12.348;2023-09-19T04:13:42;3.10;;;1.80;;
18190;SDS011;47004;51.366;12.348;2023-09-19T04:15:44;1.67;;;1.40;;
18190;SDS011;47004;51.366;12.348;2023-09-19T04:17:46;3.57;;;1.50;;
18190;SDS011;47004;51.366;12.348;2023-09-19T04:19:48;2.07;;;1.37;;
18190;SDS011;47004;51.366;12.348;2023-09-19T04:21:50;3.53;;;1.20;;
18190;SDS011;47004;51.366;12.348;2023-09-19T04:23:52;4.27;;;1.67;;
18190;SDS011;47004;51.366;12.348;2023-09-19T04:25:54;3.03;;;1.20;;
18190;SDS011;47004;51.366;12.348;2023-09-19T04:27:57;4.63;;;1.60;;
18190;SDS011;47004;51.366;12.348;2023-09-19T04:30:00;3.77;;;1.90;;
18190;SDS011;47004;51.366;12.348;2023-09-19T04:32:09;2.47;;;1.30;;
18190;SDS011;47004;51.366;12.348;2023-09-19T04:34:13;3.80;;;1.27;;
18190;SDS011;47004;51.366;12.348;2023-09-19T04:36:17;1.70;;;1.10;;
18190;SDS011;47004;51.366;12.348;2023-09-19T04:38:21;2.10;;;1.23;;
18190;SDS011;47004;51.366;12.348;2023-09-19T04:40:23;2.50;;;1.13;;
18190;SDS011;47004;51.366;12.348;2023-09-19T04:42:26;3.47;;;1.50;;
18190;SDS011;47004;51.366;12.348;2023-09-19T04:44:27;2.07;;;1.00;;
18190;SDS011;47004;51.366;12.348;2023-09-19T04:46:30;3.00;;;1.40;;
18190;SDS011;47004;51.366;12.348;2023-09-19T04:48:31;3.27;;;1.50;;
18190;SDS011;47004;51.366;12.348;2023-09-19T04:50:34;2.20;;;1.20;;
18190;SDS011;47004;51.366;12.348;2023-09-19T04:52:38;1.80;;;1.03;;
18190;SDS011;47004;51.366;12.348;2023-09-19T04:54:44;3.00;;;1.30;;
18190;SDS011;47004;51.366;12.348;2023-09-19T04:56:46;3.70;;;1.33;;
18190;SDS011;47004;51.366;12.348;2023-09-19T04:58:48;4.57;;;1.83;;
18190;SDS011;47004;51.366;12.348;2023-09-19T05:00:50;2.17;;;1.40;;
18190;SDS011;47004;51.366;12.348;2023-09-19T05:02:54;4.97;;;1.37;;
18190;SDS011;47004;51.366;12.348;2023-09-19T05:04:58;3.33;;;1.20;;
18190;SDS011;47004;51.366;12.348;2023-09-19T05:07:00;2.23;;;1.20;;
18190;SDS011;47004;51.366;12.348;2023-09-19T05:09:03;4.63;;;1.33;;
18190;SDS011;47004;51.366;12.348;2023-09-19T05:11:06;5.33;;;1.60;;
18190;SDS011;47004;51.366;12.348;2023-09-19T05:13:09;2.57;;;1.37;;
18190;SDS011;47004;51.366;12.348;2023-09-19T05:15:10;3.03;;;1.27;;
18190;SDS011;47004;51.366;12.348;2023-09-19T05:17:13;1.73;;;1.00;;
18190;SDS011;47004;51.366;12.348;2023-09-19T05:19:20;2.40;;;1.27;;
18190;SDS011;47004;51.366;12.348;2023-09-19T05:21:22;3.07;;;1.10;;
18190;SDS011;47004;51.366;12.348;2023-09-19T05:23:24;4.33;;;1.10;;
18190;SDS011;47004;51.366;12.348;2023-09-19T05:25:27;2.50;;;1.30;;
18190;SDS011;47004;51.366;12.348;2023-09-19T05:27:30;2.40;;;1.10;;
18190;SDS011;47004;51.366;12.348;2023-09-19T05:29:33;3.17;;;1.10;;
18190;SDS011;47004;51.366;12.348;2023-09-19T05:31:34;2.73;;;1.23;;
18190;SDS011;47004;51.366;12.348;2023-09-19T05:33:41;2.07;;;1.20;;
18190;SDS011;47004;51.366;12.348;2023-09-19T05:35:45;2.57;;;1.40;;
18190;SDS011;47004;51.366;12.348;2023-09-19T05:37:47;4.10;;;1.37;;
18190;SDS011;47004;51.366;12.348;2023-09-19T05:39:51;2.27;;;1.10;;
18190;SDS011;47004;51.366;12.348;2023-09-19T05:41:53;3.73;;;1.30;;
18190;SDS011;47004;51.366;12.348;2023-09-19T05:43:55;2.33;;;1.23;;
18190;SDS011;47004;51.366;12.348;2023-09-19T05:45:59;1.63;;;1.10;;
18190;SDS011;47004;51.366;12.348;2023-09-19T05:48:07;3.13;;;1.10;;
18190;SDS011;47004;51.366;12.348;2023-09-19T05:50:09;3.73;;;1.30;;
18190;SDS011;47004;51.366;12.348;2023-09-19T05:52:13;2.47;;;1.30;;
18190;SDS011;47004;51.366;12.348;2023-09-19T05:54:15;3.37;;;1.37;;
18190;SDS011;47004;51.366;12.348;2023-09-19T05:56:18;2.17;;;1.30;;
18190;SDS011;47004;51.366;12.348;2023-09-19T05:58:20;2.20;;;1.20;;
18190;SDS011;47004;51.366;12.348;2023-09-19T06:00:23;1.97;;;1.13;;
18190;SDS011;47004;51.366;12.348;2023-09-19T06:02:27;3.60;;;1.20;;
18190;SDS011;47004;51.366;12.348;2023-09-19T06:04:30;2.20;;;1.37;;
18190;SDS011;47004;51.366;12.348;2023-09-19T06:06:32;2.03;;;1.30;;
18190;SDS011;47004;51.366;12.348;2023-09-19T06:08:35;2.03;;;1.50;;
18190;SDS011;47004;51.366;12.348;2023-09-19T06:10:37;2.73;;;1.17;;
18190;SDS011;47004;51.366;12.348;2023-09-19T06:12:39;4.13;;;1.50;;
18190;SDS011;47004;51.366;12.348;2023-09-19T06:14:44;1.73;;;1.13;;
18190;SDS011;47004;51.366;12.348;2023-09-19T06:16:46;3.07;;;1.30;;
18190;SDS011;47004;51.366;12.348;2023-09-19T06:18:48;2.87;;;1.23;;
18190;SDS011;47004;51.366;12.348;2023-09-19T06:20:52;3.13;;;1.40;;
18190;SDS011;47004;51.366;12.348;2023-09-19T06:22:55;3.70;;;1.40;;
18190;SDS011;47004;51.366;12.348;2023-09-19T06:24:59;1.60;;;1.20;;
18190;SDS011;47004;51.366;12.348;2023-09-19T06:27:02;4.70;;;1.40;;
18190;SDS011;47004;51.366;12.348;2023-09-19T06:29:04;2.47;;;1.40;;
18190;SDS011;47004;51.366;12.348;2023-09-19T06:31:07;1.93;;;1.40;;
18190;SDS011;47004;51.366;12.348;2023-09-19T06:33:10;2.97;;;1.30;;
18190;SDS011;47004;51.366;12.348;2023-09-19T06:35:13;2.80;;;1.50;;
18190;SDS011;47004;51.366;12.348;2023-09-19T06:37:16;2.90;;;1.30;;
18190;SDS011;47004;51.366;12.348;2023-09-19T06:39:18;4.10;;;1.23;;
18190;SDS011;47004;51.366;12.348;2023-09-19T06:41:24;5.13;;;1.17;;
18190;SDS011;47004;51.366;12.348;2023-09-19T06:43:26;3.80;;;1.10;;
18190;SDS011;47004;51.366;12.348;2023-09-19T06:45:28;5.10;;;1.60;;
18190;SDS011;47004;51.366;12.348;2023-09-19T06:47:32;2.80;;;1.30;;
18190;SDS011;47004;51.366;12.348;2023-09-19T06:49:34;3.23;;;1.60;;
18190;SDS011;47004;51.366;12.348;2023-09-19T06:51:35;3.60;;;1.40;;
18190;SDS011;47004;51.366;12.348;2023-09-19T06:53:37;1.63;;;1.30;;
18190;SDS011;47004;51.366;12.348;2023-09-19T06:55:40;1.90;;;1.20;;
18190;SDS011;47004;51.366;12.348;2023-09-19T06:57:45;3.60;;;1.30;;
18190;SDS011;47004;51.366;12.348;2023-09-19T06:59:47;1.93;;;1.30;;
18190;SDS011;47004;51.366;12.348;2023-09-19T07:01:49;4.33;;;1.10;;
18190;SDS011;47004;51.366;12.348;2023-09-19T07:03:52;2.00;;;1.00;;
18190;SDS011;47004;51.366;12.348;2023-09-19T07:05:54;4.00;;;1.37;;
18190;SDS011;47004;51.366;12.348;2023-09-19T07:07:58;2.43;;;1.03;;
18190;SDS011;47004;51.366;12.348;2023-09-19T07:10:01;2.93;;;1.20;;
18190;SDS011;47004;51.366;12.348;2023-09-19T07:12:02;2.50;;;1.10;;
18190;SDS011;47004;51.366;12.348;2023-09-19T07:14:06;3.27;;;1.30;;
18190;SDS011;47004;51.366;12.348;2023-09-19T07:16:08;3.00;;;1.13;;
18190;SDS011;47004;51.366;12.348;2023-09-19T07:18:13;3.57;;;1.10;;
18190;SDS011;47004;51.366;12.348;2023-09-19T07:20:16;2.50;;;1.10;;
18190;SDS011;47004;51.366;12.348;2023-09-19T07:22:18;5.53;;;1.30;;
18190;SDS011;47004;51.366;12.348;2023-09-19T07:24:21;2.83;;;1.10;;
18190;SDS011;47004;51.366;12.348;2023-09-19T07:26:24;2.60;;;1.20;;
18190;SDS011;47004;51.366;12.348;2023-09-19T07:28:26;1.57;;;1.00;;
18190;SDS011;47004;51.366;12.348;2023-09-19T07:30:29;3.80;;;1.30;;
18190;SDS011;47004;51.366;12.348;2023-09-19T07:32:31;2.83;;;1.43;;
18190;SDS011;47004;51.366;12.348;2023-09-19T07:34:33;7.83;;;1.60;;
18190;SDS011;47004;51.366;12.348;2023-09-19T07:36:35;1.97;;;1.20;;
18190;SDS011;47004;51.366;12.348;2023-09-19T07:38:38;2.23;;;0.93;;
18190;SDS011;47004;51.366;12.348;2023-09-19T07:40:40;4.57;;;1.60;;
18190;SDS011;47004;51.366;12.348;2023-09-19T07:42:42;6.90;;;1.90;;
18190;SDS011;47004;51.366;12.348;2023-09-19T07:44:44;2.30;;;1.20;;
18190;SDS011;47004;51.366;12.348;2023-09-19T07:46:51;4.63;;;1.40;;
18190;SDS011;47004;51.366;12.348;2023-09-19T07:48:53;2.53;;;1.20;;
18190;SDS011;47004;51.366;12.348;2023-09-19T07:50:55;5.03;;;1.07;;
18190;SDS011;47004;51.366;12.348;2023-09-19T07:52:57;2.70;;;1.10;;
18190;SDS011;47004;51.366;12.348;2023-09-19T07:54:59;5.50;;;1.30;;
18190;SDS011;47004;51.366;12.348;2023-09-19T07:57:01;1.47;;;0.90;;
18190;SDS011;47004;51.366;12.348;2023-09-19T07:59:04;2.40;;;1.00;;
18190;SDS011;47004;51.366;12.348;2023-09-19T08:01:07;3.50;;;1.10;;
18190;SDS011;47004;51.366;12.348;2023-09-19T08:03:11;2.67;;;1.20;;
18190;SDS011;47004;51.366;12.348;2023-09-19T08:05:14;2.93;;;1.00;;
18190;SDS011;47004;51.366;12.348;2023-09-19T08:07:16;3.10;;;1.13;;
18190;SDS011;47004;51.366;12.348;2023-09-19T08:09:18;3.23;;;1.20;;
18190;SDS011;47004;51.366;12.348;2023-09-19T08:11:21;3.60;;;1.50;;
18190;SDS011;47004;51.366;12.348;2023-09-19T08:13:25;3.53;;;1.30;;
18190;SDS011;47004;51.366;12.348;2023-09-19T08:15:27;4.60;;;1.30;;
18190;SDS011;47004;51.366;12.348;2023-09-19T08:17:33;4.90;;;1.10;;
18190;SDS011;47004;51.366;12.348;2023-09-19T08:19:37;4.50;;;0.83;;
18190;SDS011;47004;51.366;12.348;2023-09-19T08:21:42;4.03;;;1.30;;
18190;SDS011;47004;51.366;12.348;2023-09-19T08:23:47;5.10;;;1.33;;
18190;SDS011;47004;51.366;12.348;2023-09-19T08:25:49;7.47;;;1.57;;
18190;SDS011;47004;51.366;12.348;2023-09-19T08:27:54;2.27;;;1.00;;
18190;SDS011;47004;51.366;12.348;2023-09-19T08:29:58;5.40;;;1.67;;
18190;SDS011;47004;51.366;12.348;2023-09-19T08:32:00;3.30;;;1.07;;
18190;SDS011;47004;51.366;12.348;2023-09-19T08:34:02;4.30;;;1.20;;
18190;SDS011;47004;51.366;12.348;2023-09-19T08:36:05;3.27;;;1.10;;
18190;SDS011;47004;51.366;12.348;2023-09-19T08:38:09;7.73;;;1.30;;
18190;SDS011;47004;51.366;12.348;2023-09-19T08:40:12;2.07;;;1.20;;
18190;SDS011;47004;51.366;12.348;2023-09-19T08:42:14;4.17;;;1.83;;
18190;SDS011;47004;51.366;12.348;2023-09-19T08:44:17;4.80;;;1.50;;
18190;SDS011;47004;51.366;12.348;2023-09-19T08:46:19;5.70;;;1.40;;
18190;SDS011;47004;51.366;12.348;2023-09-19T08:48:25;5.27;;;1.57;;
18190;SDS011;47004;51.366;12.348;2023-09-19T08:50:29;4.33;;;1.13;;
18190;SDS011;47004;51.366;12.348;2023-09-19T08:52:36;4.40;;;1.40;;
18190;SDS011;47004;51.366;12.348;2023-09-19T08:54:41;4.43;;;1.23;;
18190;SDS011;47004;51.366;12.348;2023-09-19T08:56:46;3.97;;;1.47;;
18190;SDS011;47004;51.366;12.348;2023-09-19T08:58:50;4.47;;;1.23;;
18190;SDS011;47004;51.366;12.348;2023-09-19T09:00:54;2.80;;;1.23;;
18190;SDS011;47004;51.366;12.348;2023-09-19T09:02:58;1.90;;;1.03;;
18190;SDS011;47004;51.366;12.348;2023-09-19T09:05:02;3.53;;;1.00;;
18190;SDS011;47004;51.366;12.348;2023-09-19T09:07:06;4.33;;;1.20;;
18190;SDS011;47004;51.366;12.348;2023-09-19T09:09:12;3.13;;;0.93;;
18190;SDS011;47004;51.366;12.348;2023-09-19T09:11:15;7.23;;;1.37;;
18190;SDS011;47004;51.366;12.348;2023-09-19T09:13:17;4.27;;;1.10;;
18190;SDS011;47004;51.366;12.348;2023-09-19T09:15:22;4.87;;;1.20;;
18190;SDS011;47004;51.366;12.348;2023-09-19T09:17:25;4.13;;;1.00;;
18190;SDS011;47004;51.366;12.348;2023-09-19T09:19:28;4.90;;;1.40;;
18190;SDS011;47004;51.366;12.348;2023-09-19T09:21:31;3.97;;;1.20;;
18190;SDS011;47004;51.366;12.348;2023-09-19T09:23:36;2.43;;;1.10;;
18190;SDS011;47004;51.366;12.348;2023-09-19T09:25:50;2.47;;;1.10;;
18190;SDS011;47004;51.366;12.348;2023-09-19T09:27:59;3.27;;;1.20;;
18190;SDS011;47004;51.366;12.348;2023-09-19T09:30:03;9.30;;;1.30;;
18190;SDS011;47004;51.366;12.348;2023-09-19T09:32:16;5.67;;;1.00;;
18190;SDS011;47004;51.366;12.348;2023-09-19T09:34:20;4.23;;;1.27;;
18190;SDS011;47004;51.366;12.348;2023-09-19T09:36:33;6.83;;;1.30;;
18190;SDS011;47004;51.366;12.348;2023-09-19T09:38:42;3.20;;;1.23;;
18190;SDS011;47004;51.366;12.348;2023-09-19T09:40:46;2.03;;;1.10;;
18190;SDS011;47004;51.366;12.348;2023-09-19T09:42:54;3.03;;;1.50;;
18190;SDS011;47004;51.366;12.348;2023-09-19T09:45:12;2.20;;;1.23;;
18190;SDS011;47004;51.366;12.348;2023-09-19T09:47:14;3.37;;;1.30;;
18190;SDS011;47004;51.366;12.348;2023-09-19T09:49:38;3.13;;;1.10;;
18190;SDS011;47004;51.366;12.348;2023-09-19T09:51:39;4.53;;;1.30;;
18190;SDS011;47004;51.366;12.348;2023-09-19T09:53:42;4.90;;;1.40;;
18190;SDS011;47004;51.366;12.348;2023-09-19T09:55:59;3.80;;;1.60;;
18190;SDS011;47004;51.366;12.348;2023-09-19T09:58:19;4.43;;;1.10;;
18190;SDS011;47004;51.366;12.348;2023-09-19T10:00:29;5.67;;;1.30;;
18190;SDS011;47004;51.366;12.348;2023-09-19T10:02:42;3.47;;;1.53;;
18190;SDS011;47004;51.366;12.348;2023-09-19T10:04:46;6.40;;;1.73;;
18190;SDS011;47004;51.366;12.348;2023-09-19T10:06:52;2.57;;;1.10;;
18190;SDS011;47004;51.366;12.348;2023-09-19T10:08:57;4.00;;;1.20;;
18190;SDS011;47004;51.366;12.348;2023-09-19T10:11:17;3.30;;;1.20;;
18190;SDS011;47004;51.366;12.348;2023-09-19T10:13:21;3.90;;;1.20;;
18190;SDS011;47004;51.366;12.348;2023-09-19T10:15:27;2.57;;;1.10;;
18190;SDS011;47004;51.366;12.348;2023-09-19T10:17:33;4.60;;;1.87;;
18190;SDS011;47004;51.366;12.348;2023-09-19T10:19:36;5.10;;;1.57;;
18190;SDS011;47004;51.366;12.348;2023-09-19T10:21:45;3.10;;;1.30;;
18190;SDS011;47004;51.366;12.348;2023-09-19T10:23:47;5.17;;;1.40;;
18190;SDS011;47004;51.366;12.348;2023-09-19T10:25:52;5.33;;;1.40;;
18190;SDS011;47004;51.366;12.348;2023-09-19T10:27:57;2.93;;;1.17;;
18190;SDS011;47004;51.366;12.348;2023-09-19T10:30:05;7.23;;;1.53;;
18190;SDS011;47004;51.366;12.348;2023-09-19T10:32:09;4.57;;;1.30;;
18190;SDS011;47004;51.366;12.348;2023-09-19T10:34:18;6.37;;;1.50;;
18190;SDS011;47004;51.366;12.348;2023-09-19T10:36:23;4.30;;;1.23;;
18190;SDS011;47004;51.366;12.348;2023-09-19T10:38:27;3.10;;;1.00;;
18190;SDS011;47004;51.366;12.348;2023-09-19T10:40:29;5.57;;;1.50;;
18190;SDS011;47004;51.366;12.348;2023-09-19T10:42:33;3.37;;;1.23;;
18190;SDS011;47004;51.366;12.348;2023-09-19T10:44:39;4.67;;;1.43;;
18190;SDS011;47004;51.366;12.348;2023-09-19T10:46:45;8.93;;;1.83;;
18190;SDS011;47004;51.366;12.348;2023-09-19T10:48:48;2.77;;;1.40;;
18190;SDS011;47004;51.366;12.348;2023-09-19T10:50:57;3.63;;;1.30;;
18190;SDS011;47004;51.366;12.348;2023-09-19T10:53:05;2.33;;;1.13;;
18190;SDS011;47004;51.366;12.348;2023-09-19T10:55:11;6.33;;;1.70;;
18190;SDS011;47004;51.366;12.348;2023-09-19T10:57:20;4.27;;;1.17;;
18190;SDS011;47004;51.366;12.348;2023-09-19T10:59:24;3.03;;;1.27;;
18190;SDS011;47004;51.366;12.348;2023-09-19T11:01:41;4.60;;;1.33;;
18190;SDS011;47004;51.366;12.348;2023-09-19T11:03:51;5.33;;;1.43;;
18190;SDS011;47004;51.366;12.348;2023-09-19T11:06:23;3.27;;;1.30;;
18190;SDS011;47004;51.366;12.348;2023-09-19T11:08:25;5.00;;;1.40;;
18190;SDS011;47004;51.366;12.348;2023-09-19T11:10:46;5.13;;;1.30;;
18190;SDS011;47004;51.366;12.348;2023-09-19T11:12:49;4.30;;;1.17;;
18190;SDS011;47004;51.366;12.348;2023-09-19T11:14:50;5.23;;;1.43;;
18190;SDS011;47004;51.366;12.348;2023-09-19T11:22:16;3.60;;;1.23;;
18190;SDS011;47004;51.366;12.348;2023-09-19T11:24:28;2.50;;;1.10;;
18190;SDS011;47004;51.366;12.348;2023-09-19T11:26:43;6.20;;;1.43;;
18190;SDS011;47004;51.366;12.348;2023-09-19T11:28:47;3.97;;;1.30;;
18190;SDS011;47004;51.366;12.348;2023-09-19T11:33:53;2.67;;;1.30;;
18190;SDS011;47004;51.366;12.348;2023-09-19T11:36:36;4.97;;;1.30;;
18190;SDS011;47004;51.366;12.348;2023-09-19T11:43:41;3.13;;;1.40;;
18190;SDS011;47004;51.366;12.348;2023-09-19T11:46:02;9.17;;;1.50;;
18190;SDS011;47004;51.366;12.348;2023-09-19T11:48:07;3.63;;;1.43;;
18190;SDS011;47004;51.366;12.348;2023-09-19T11:50:09;3.33;;;1.30;;
18190;SDS011;47004;51.366;12.348;2023-09-19T11:52:16;5.50;;;1.20;;
18190;SDS011;47004;51.366;12.348;2023-09-19T11:54:24;3.87;;;1.33;;
18190;SDS011;47004;51.366;12.348;2023-09-19T11:56:29;3.43;;;1.20;;
18190;SDS011;47004;51.366;12.348;2023-09-19T11:58:31;3.63;;;1.53;;
18190;SDS011;47004;51.366;12.348;2023-09-19T12:00:33;3.83;;;1.37;;
18190;SDS011;47004;51.366;12.348;2023-09-19T12:02:38;3.87;;;1.20;;
18190;SDS011;47004;51.366;12.348;2023-09-19T12:04:43;4.87;;;1.47;;
18190;SDS011;47004;51.366;12.348;2023-09-19T12:06:56;3.67;;;1.40;;
18190;SDS011;47004;51.366;12.348;2023-09-19T12:08:59;4.27;;;1.37;;
18190;SDS011;47004;51.366;12.348;2023-09-19T12:11:05;2.53;;;1.27;;
18190;SDS011;47004;51.366;12.348;2023-09-19T12:13:10;2.70;;;1.40;;
18190;SDS011;47004;51.366;12.348;2023-09-19T12:15:22;3.33;;;1.40;;
18190;SDS011;47004;51.366;12.348;2023-09-19T12:17:34;5.03;;;1.50;;
18190;SDS011;47004;51.366;12.348;2023-09-19T12:19:37;4.17;;;1.30;;
18190;SDS011;47004;51.366;12.348;2023-09-19T12:21:39;3.53;;;1.50;;
18190;SDS011;47004;51.366;12.348;2023-09-19T12:23:40;4.57;;;1.30;;
18190;SDS011;47004;51.366;12.348;2023-09-19T12:25:44;6.63;;;1.70;;
18190;SDS011;47004;51.366;12.348;2023-09-19T12:27:48;4.97;;;1.70;;
18190;SDS011;47004;51.366;12.348;2023-09-19T12:29:53;2.93;;;1.57;;
18190;SDS011;47004;51.366;12.348;2023-09-19T12:31:56;4.57;;;1.90;;